sensor_id;sensor_type;location;lat;lon;timestamp;temperature;humidity
8537;DHT22;4306;50.210;10.628;2023-03-01T00:00:54;-1.60;99.90
8537;DHT22;4306;50.210;10.628;2023-03-01T00:03:21;-1.60;99.90
8537;DHT22;4306;50.210;10.628;2023-03-01T00:05:48;-1.70;99.90
8537;DHT22;4306;50.210;10.628;2023-03-01T00:08:16;-1.70;99.90
8537;DHT22;4306;50.210;10.628;2023-03-01T00:10:43;-1.60;99.90
8537;DHT22;4306;50.210;10.628;2023-03-01T00:13:10;-1.60;99.90
8537;DHT22;4306;50.210;10.628;2023-03-01T00:15:38;-1.70;99.90
8537;DHT22;4306;50.210;10.628;2023-03-01T00:18:06;-1.70;99.90
8537;DHT22;4306;50.210;10.628;2023-03-01T00:20:34;-1.70;99.90
8537;DHT22;4306;50.210;10.628;2023-03-01T00:23:01;-1.70;99.90
8537;DHT22;4306;50.210;10.628;2023-03-01T00:25:29;-1.70;99.90
8537;DHT22;4306;50.210;10.628;2023-03-01T00:27:56;-1.60;99.90
8537;DHT22;4306;50.210;10.628;2023-03-01T00:30:22;-1.70;99.90
8537;DHT22;4306;50.210;10.628;2023-03-01T00:32:49;-1.80;99.90
8537;DHT22;4306;50.210;10.628;2023-03-01T00:35:16;-1.80;99.90
8537;DHT22;4306;50.210;10.628;2023-03-01T00:37:43;-1.80;99.90
8537;DHT22;4306;50.210;10.628;2023-03-01T00:40:11;-1.80;99.90
8537;DHT22;4306;50.210;10.628;2023-03-01T00:42:39;-1.80;99.90
8537;DHT22;4306;50.210;10.628;2023-03-01T00:45:07;-1.70;99.90
8537;DHT22;4306;50.210;10.628;2023-03-01T00:47:34;-1.80;99.90
8537;DHT22;4306;50.210;10.628;2023-03-01T00:50:01;-1.70;99.90
8537;DHT22;4306;50.210;10.628;2023-03-01T00:52:28;-1.80;99.90
8537;DHT22;4306;50.210;10.628;2023-03-01T00:54:55;-1.70;99.90
8537;DHT22;4306;50.210;10.628;2023-03-01T00:57:23;-1.70;99.90
8537;DHT22;4306;50.210;10.628;2023-03-01T00:59:51;-1.60;99.90
8537;DHT22;4306;50.210;10.628;2023-03-01T01:02:18;-1.60;99.90
8537;DHT22;4306;50.210;10.628;2023-03-01T01:04:45;-1.80;99.90
8537;DHT22;4306;50.210;10.628;2023-03-01T01:07:12;-1.80;99.90
8537;DHT22;4306;50.210;10.628;2023-03-01T01:09:40;-1.80;99.90
8537;DHT22;4306;50.210;10.628;2023-03-01T01:12:07;-1.70;99.90
8537;DHT22;4306;50.210;10.628;2023-03-01T01:14:35;-1.70;99.90
8537;DHT22;4306;50.210;10.628;2023-03-01T01:17:03;-1.70;99.90
8537;DHT22;4306;50.210;10.628;2023-03-01T01:19:30;-1.80;99.90
8537;DHT22;4306;50.210;10.628;2023-03-01T01:21:57;-1.80;99.90
8537;DHT22;4306;50.210;10.628;2023-03-01T01:24:24;-1.80;99.90
8537;DHT22;4306;50.210;10.628;2023-03-01T01:26:51;-1.80;99.90
8537;DHT22;4306;50.210;10.628;2023-03-01T01:29:18;-1.70;99.90
8537;DHT22;4306;50.210;10.628;2023-03-01T01:31:45;-1.70;99.90
8537;DHT22;4306;50.210;10.628;2023-03-01T01:34:15;-1.70;99.90
8537;DHT22;4306;50.210;10.628;2023-03-01T01:36:42;-1.70;99.90
8537;DHT22;4306;50.210;10.628;2023-03-01T01:39:09;-1.70;99.90
8537;DHT22;4306;50.210;10.628;2023-03-01T01:41:39;-1.80;99.90
8537;DHT22;4306;50.210;10.628;2023-03-01T01:44:17;-1.80;99.90
8537;DHT22;4306;50.210;10.628;2023-03-01T01:46:46;-1.90;99.90
8537;DHT22;4306;50.210;10.628;2023-03-01T01:49:24;-1.90;99.90
8537;DHT22;4306;50.210;10.628;2023-03-01T01:51:57;-1.90;99.90
8537;DHT22;4306;50.210;10.628;2023-03-01T01:54:28;-1.90;99.90
8537;DHT22;4306;50.210;10.628;2023-03-01T01:57:00;-1.90;99.90
8537;DHT22;4306;50.210;10.628;2023-03-01T01:59:28;-1.80;99.90
8537;DHT22;4306;50.210;10.628;2023-03-01T02:01:59;-1.80;99.90
8537;DHT22;4306;50.210;10.628;2023-03-01T02:04:28;-1.80;99.90
8537;DHT22;4306;50.210;10.628;2023-03-01T02:06:59;-1.90;99.90
8537;DHT22;4306;50.210;10.628;2023-03-01T02:09:28;-1.80;99.90
8537;DHT22;4306;50.210;10.628;2023-03-01T02:11:55;-1.80;99.90
8537;DHT22;4306;50.210;10.628;2023-03-01T02:14:22;-1.80;99.90
8537;DHT22;4306;50.210;10.628;2023-03-01T02:16:49;-1.80;99.90
8537;DHT22;4306;50.210;10.628;2023-03-01T02:19:30;-1.90;99.90
8537;DHT22;4306;50.210;10.628;2023-03-01T02:22:03;-1.90;99.90
8537;DHT22;4306;50.210;10.628;2023-03-01T02:24:40;-2.00;99.90
8537;DHT22;4306;50.210;10.628;2023-03-01T02:27:10;-2.00;99.90
8537;DHT22;4306;50.210;10.628;2023-03-01T02:29:39;-2.00;99.90
8537;DHT22;4306;50.210;10.628;2023-03-01T02:32:10;-1.80;99.90
8537;DHT22;4306;50.210;10.628;2023-03-01T02:34:37;-2.00;99.90
8537;DHT22;4306;50.210;10.628;2023-03-01T02:37:08;-1.90;99.90
8537;DHT22;4306;50.210;10.628;2023-03-01T02:39:41;-1.90;99.90
8537;DHT22;4306;50.210;10.628;2023-03-01T02:42:12;-1.90;99.90
8537;DHT22;4306;50.210;10.628;2023-03-01T02:44:40;-2.00;99.90
8537;DHT22;4306;50.210;10.628;2023-03-01T02:47:07;-2.10;99.90
8537;DHT22;4306;50.210;10.628;2023-03-01T02:49:35;-2.00;99.90
8537;DHT22;4306;50.210;10.628;2023-03-01T02:52:21;-2.10;99.90
8537;DHT22;4306;50.210;10.628;2023-03-01T02:54:54;-2.10;99.90
8537;DHT22;4306;50.210;10.628;2023-03-01T02:57:24;-2.10;99.90
8537;DHT22;4306;50.210;10.628;2023-03-01T02:59:54;-2.10;99.90
8537;DHT22;4306;50.210;10.628;2023-03-01T03:02:23;-2.00;99.90
8537;DHT22;4306;50.210;10.628;2023-03-01T03:05:05;-2.00;99.90
8537;DHT22;4306;50.210;10.628;2023-03-01T03:07:34;-2.20;99.90
8537;DHT22;4306;50.210;10.628;2023-03-01T03:10:02;-2.30;99.90
8537;DHT22;4306;50.210;10.628;2023-03-01T03:12:29;-2.30;99.90
8537;DHT22;4306;50.210;10.628;2023-03-01T03:14:57;-2.20;99.90
8537;DHT22;4306;50.210;10.628;2023-03-01T03:17:23;-2.20;99.90
8537;DHT22;4306;50.210;10.628;2023-03-01T03:19:51;-2.20;99.90
8537;DHT22;4306;50.210;10.628;2023-03-01T03:22:17;-2.30;99.90
8537;DHT22;4306;50.210;10.628;2023-03-01T03:24:44;-2.40;99.90
8537;DHT22;4306;50.210;10.628;2023-03-01T03:27:11;-2.50;99.90
8537;DHT22;4306;50.210;10.628;2023-03-01T03:29:38;-2.50;99.90
8537;DHT22;4306;50.210;10.628;2023-03-01T03:32:06;-2.50;99.90
8537;DHT22;4306;50.210;10.628;2023-03-01T03:34:33;-2.50;99.90
8537;DHT22;4306;50.210;10.628;2023-03-01T03:37:00;-2.50;99.90
8537;DHT22;4306;50.210;10.628;2023-03-01T03:39:27;-2.70;99.90
8537;DHT22;4306;50.210;10.628;2023-03-01T03:41:54;-2.70;99.90
8537;DHT22;4306;50.210;10.628;2023-03-01T03:44:21;-2.70;99.90
8537;DHT22;4306;50.210;10.628;2023-03-01T03:46:48;-2.80;99.90
8537;DHT22;4306;50.210;10.628;2023-03-01T03:49:16;-2.70;99.90
8537;DHT22;4306;50.210;10.628;2023-03-01T03:51:45;-2.80;99.90
8537;DHT22;4306;50.210;10.628;2023-03-01T03:54:12;-2.90;99.90
8537;DHT22;4306;50.210;10.628;2023-03-01T03:56:39;-3.00;99.90
8537;DHT22;4306;50.210;10.628;2023-03-01T03:59:06;-3.10;99.90
8537;DHT22;4306;50.210;10.628;2023-03-01T04:01:32;-3.10;99.90
8537;DHT22;4306;50.210;10.628;2023-03-01T04:03:59;-3.10;99.90
8537;DHT22;4306;50.210;10.628;2023-03-01T04:06:31;-3.00;99.90
8537;DHT22;4306;50.210;10.628;2023-03-01T04:08:57;-3.00;99.90
8537;DHT22;4306;50.210;10.628;2023-03-01T04:11:26;-2.90;99.90
8537;DHT22;4306;50.210;10.628;2023-03-01T04:13:54;-2.90;99.90
8537;DHT22;4306;50.210;10.628;2023-03-01T04:16:21;-3.00;99.90
8537;DHT22;4306;50.210;10.628;2023-03-01T04:18:48;-3.00;99.90
8537;DHT22;4306;50.210;10.628;2023-03-01T04:21:14;-3.00;99.90
8537;DHT22;4306;50.210;10.628;2023-03-01T04:23:43;-2.90;99.90
8537;DHT22;4306;50.210;10.628;2023-03-01T04:26:10;-2.90;99.90
8537;DHT22;4306;50.210;10.628;2023-03-01T04:28:38;-2.90;99.90
8537;DHT22;4306;50.210;10.628;2023-03-01T04:31:10;-2.90;99.90
8537;DHT22;4306;50.210;10.628;2023-03-01T04:33:40;-2.70;99.90
8537;DHT22;4306;50.210;10.628;2023-03-01T04:36:08;-2.80;99.90
8537;DHT22;4306;50.210;10.628;2023-03-01T04:38:35;-2.90;99.90
8537;DHT22;4306;50.210;10.628;2023-03-01T04:41:05;-2.90;99.90
8537;DHT22;4306;50.210;10.628;2023-03-01T04:43:32;-2.90;99.90
8537;DHT22;4306;50.210;10.628;2023-03-01T04:46:03;-3.00;99.90
8537;DHT22;4306;50.210;10.628;2023-03-01T04:48:30;-3.00;99.90
8537;DHT22;4306;50.210;10.628;2023-03-01T04:50:58;-3.00;99.90
8537;DHT22;4306;50.210;10.628;2023-03-01T04:53:26;-3.00;99.90
8537;DHT22;4306;50.210;10.628;2023-03-01T04:55:54;-2.90;99.90
8537;DHT22;4306;50.210;10.628;2023-03-01T04:58:22;-2.90;99.90
8537;DHT22;4306;50.210;10.628;2023-03-01T05:00:49;-2.90;99.90
8537;DHT22;4306;50.210;10.628;2023-03-01T05:03:16;-2.90;99.90
8537;DHT22;4306;50.210;10.628;2023-03-01T05:05:45;-2.80;99.90
8537;DHT22;4306;50.210;10.628;2023-03-01T05:08:12;-2.70;99.90
8537;DHT22;4306;50.210;10.628;2023-03-01T05:10:44;-2.70;99.90
8537;DHT22;4306;50.210;10.628;2023-03-01T05:13:13;-2.70;99.90
8537;DHT22;4306;50.210;10.628;2023-03-01T05:15:42;-2.60;99.90
8537;DHT22;4306;50.210;10.628;2023-03-01T05:18:08;-2.60;99.90
8537;DHT22;4306;50.210;10.628;2023-03-01T05:20:37;-2.60;99.90
8537;DHT22;4306;50.210;10.628;2023-03-01T05:23:04;-2.60;99.90
8537;DHT22;4306;50.210;10.628;2023-03-01T05:25:33;-2.60;99.90
8537;DHT22;4306;50.210;10.628;2023-03-01T05:28:01;-2.70;99.90
8537;DHT22;4306;50.210;10.628;2023-03-01T05:30:30;-2.90;99.90
8537;DHT22;4306;50.210;10.628;2023-03-01T05:33:00;-2.90;99.90
8537;DHT22;4306;50.210;10.628;2023-03-01T05:35:27;-2.90;99.90
8537;DHT22;4306;50.210;10.628;2023-03-01T05:37:55;-2.90;99.90
8537;DHT22;4306;50.210;10.628;2023-03-01T05:40:23;-2.80;99.90
8537;DHT22;4306;50.210;10.628;2023-03-01T05:42:52;-2.80;99.90
8537;DHT22;4306;50.210;10.628;2023-03-01T05:45:20;-2.80;99.90
8537;DHT22;4306;50.210;10.628;2023-03-01T05:47:49;-2.90;99.90
8537;DHT22;4306;50.210;10.628;2023-03-01T05:50:18;-3.00;99.90
8537;DHT22;4306;50.210;10.628;2023-03-01T05:52:47;-3.00;99.90
8537;DHT22;4306;50.210;10.628;2023-03-01T05:55:14;-3.00;99.90
8537;DHT22;4306;50.210;10.628;2023-03-01T05:57:41;-3.00;99.90
8537;DHT22;4306;50.210;10.628;2023-03-01T06:00:09;-3.00;99.90
8537;DHT22;4306;50.210;10.628;2023-03-01T06:02:37;-3.10;99.90
8537;DHT22;4306;50.210;10.628;2023-03-01T06:05:05;-3.00;99.90
8537;DHT22;4306;50.210;10.628;2023-03-01T06:07:33;-3.00;99.90
8537;DHT22;4306;50.210;10.628;2023-03-01T06:10:00;-3.10;99.90
8537;DHT22;4306;50.210;10.628;2023-03-01T06:12:30;-3.10;99.90
8537;DHT22;4306;50.210;10.628;2023-03-01T06:14:57;-3.10;99.90
8537;DHT22;4306;50.210;10.628;2023-03-01T06:17:24;-3.10;99.90
8537;DHT22;4306;50.210;10.628;2023-03-01T06:19:51;-3.10;99.90
8537;DHT22;4306;50.210;10.628;2023-03-01T06:22:18;-3.00;99.90
8537;DHT22;4306;50.210;10.628;2023-03-01T06:24:46;-3.00;99.90
8537;DHT22;4306;50.210;10.628;2023-03-01T06:27:13;-3.00;99.90
8537;DHT22;4306;50.210;10.628;2023-03-01T06:29:39;-3.10;99.90
8537;DHT22;4306;50.210;10.628;2023-03-01T06:32:06;-3.10;99.90
8537;DHT22;4306;50.210;10.628;2023-03-01T06:34:34;-3.10;99.90
8537;DHT22;4306;50.210;10.628;2023-03-01T06:37:01;-3.10;99.90
8537;DHT22;4306;50.210;10.628;2023-03-01T06:39:30;-3.10;99.90
8537;DHT22;4306;50.210;10.628;2023-03-01T06:41:59;-3.10;99.90
8537;DHT22;4306;50.210;10.628;2023-03-01T06:44:26;-3.00;99.90
8537;DHT22;4306;50.210;10.628;2023-03-01T06:46:53;-3.00;99.90
8537;DHT22;4306;50.210;10.628;2023-03-01T06:49:20;-2.90;99.90
8537;DHT22;4306;50.210;10.628;2023-03-01T06:51:47;-3.10;99.90
8537;DHT22;4306;50.210;10.628;2023-03-01T06:54:14;-3.10;99.90
8537;DHT22;4306;50.210;10.628;2023-03-01T06:56:43;-3.10;99.90
8537;DHT22;4306;50.210;10.628;2023-03-01T06:59:14;-3.10;99.90
8537;DHT22;4306;50.210;10.628;2023-03-01T07:01:41;-3.10;99.90
8537;DHT22;4306;50.210;10.628;2023-03-01T07:04:08;-3.10;99.90
8537;DHT22;4306;50.210;10.628;2023-03-01T07:06:34;-3.10;99.90
8537;DHT22;4306;50.210;10.628;2023-03-01T07:09:01;-3.00;99.90
8537;DHT22;4306;50.210;10.628;2023-03-01T07:11:28;-2.90;99.90
8537;DHT22;4306;50.210;10.628;2023-03-01T07:13:55;-2.90;99.90
8537;DHT22;4306;50.210;10.628;2023-03-01T07:16:23;-2.80;99.90
8537;DHT22;4306;50.210;10.628;2023-03-01T07:18:50;-2.80;99.90
8537;DHT22;4306;50.210;10.628;2023-03-01T07:21:17;-2.80;99.90
8537;DHT22;4306;50.210;10.628;2023-03-01T07:23:43;-2.70;99.90
8537;DHT22;4306;50.210;10.628;2023-03-01T07:26:13;-2.60;99.90
8537;DHT22;4306;50.210;10.628;2023-03-01T07:28:40;-2.60;99.90
8537;DHT22;4306;50.210;10.628;2023-03-01T07:31:07;-2.50;99.90
8537;DHT22;4306;50.210;10.628;2023-03-01T07:33:35;-2.40;99.90
8537;DHT22;4306;50.210;10.628;2023-03-01T07:36:03;-2.30;99.90
8537;DHT22;4306;50.210;10.628;2023-03-01T07:38:31;-2.10;99.90
8537;DHT22;4306;50.210;10.628;2023-03-01T07:40:59;-1.90;99.90
8537;DHT22;4306;50.210;10.628;2023-03-01T07:43:26;-1.80;99.90
8537;DHT22;4306;50.210;10.628;2023-03-01T07:45:53;-1.60;99.90
8537;DHT22;4306;50.210;10.628;2023-03-01T07:48:20;-1.40;99.90
8537;DHT22;4306;50.210;10.628;2023-03-01T07:50:49;-1.20;99.90
8537;DHT22;4306;50.210;10.628;2023-03-01T07:53:16;-1.20;99.90
8537;DHT22;4306;50.210;10.628;2023-03-01T07:55:43;-1.00;99.90
8537;DHT22;4306;50.210;10.628;2023-03-01T07:58:10;-0.90;99.90
8537;DHT22;4306;50.210;10.628;2023-03-01T08:00:37;-0.80;99.90
8537;DHT22;4306;50.210;10.628;2023-03-01T08:03:04;-0.80;99.90
8537;DHT22;4306;50.210;10.628;2023-03-01T08:05:30;-0.60;99.90
8537;DHT22;4306;50.210;10.628;2023-03-01T08:08:00;-0.50;99.90
8537;DHT22;4306;50.210;10.628;2023-03-01T08:10:27;-0.40;99.90
8537;DHT22;4306;50.210;10.628;2023-03-01T08:12:54;-0.40;99.90
8537;DHT22;4306;50.210;10.628;2023-03-01T08:15:21;-0.20;99.90
8537;DHT22;4306;50.210;10.628;2023-03-01T08:17:49;-0.20;99.90
8537;DHT22;4306;50.210;10.628;2023-03-01T08:20:17;-0.20;99.90
8537;DHT22;4306;50.210;10.628;2023-03-01T08:22:44;-0.10;99.90
8537;DHT22;4306;50.210;10.628;2023-03-01T08:25:14;-0.10;99.90
8537;DHT22;4306;50.210;10.628;2023-03-01T08:27:41;0.10;99.90
8537;DHT22;4306;50.210;10.628;2023-03-01T08:30:10;0.20;99.90
8537;DHT22;4306;50.210;10.628;2023-03-01T08:32:38;0.20;99.90
8537;DHT22;4306;50.210;10.628;2023-03-01T08:35:06;0.30;99.80
8537;DHT22;4306;50.210;10.628;2023-03-01T08:37:33;0.40;99.90
8537;DHT22;4306;50.210;10.628;2023-03-01T08:40:01;0.40;99.90
8537;DHT22;4306;50.210;10.628;2023-03-01T08:42:32;0.60;99.90
8537;DHT22;4306;50.210;10.628;2023-03-01T08:44:59;0.60;99.90
8537;DHT22;4306;50.210;10.628;2023-03-01T08:47:25;0.70;98.90
8537;DHT22;4306;50.210;10.628;2023-03-01T08:49:52;0.80;99.70
8537;DHT22;4306;50.210;10.628;2023-03-01T08:52:20;0.80;98.60
8537;DHT22;4306;50.210;10.628;2023-03-01T08:54:48;0.80;98.60
8537;DHT22;4306;50.210;10.628;2023-03-01T08:57:15;1.00;98.50
8537;DHT22;4306;50.210;10.628;2023-03-01T08:59:44;1.00;97.50
8537;DHT22;4306;50.210;10.628;2023-03-01T09:02:12;1.20;98.10
8537;DHT22;4306;50.210;10.628;2023-03-01T09:04:40;1.30;98.00
8537;DHT22;4306;50.210;10.628;2023-03-01T09:07:07;1.30;96.80
8537;DHT22;4306;50.210;10.628;2023-03-01T09:09:35;1.40;97.00
8537;DHT22;4306;50.210;10.628;2023-03-01T09:12:03;1.40;96.90
8537;DHT22;4306;50.210;10.628;2023-03-01T09:14:30;1.60;96.90
8537;DHT22;4306;50.210;10.628;2023-03-01T09:16:59;1.60;96.30
8537;DHT22;4306;50.210;10.628;2023-03-01T09:19:28;1.80;95.80
8537;DHT22;4306;50.210;10.628;2023-03-01T09:21:56;1.80;96.80
8537;DHT22;4306;50.210;10.628;2023-03-01T09:24:24;1.90;95.90
8537;DHT22;4306;50.210;10.628;2023-03-01T09:26:53;2.00;95.80
8537;DHT22;4306;50.210;10.628;2023-03-01T09:29:21;2.10;94.80
8537;DHT22;4306;50.210;10.628;2023-03-01T09:31:48;2.10;96.20
8537;DHT22;4306;50.210;10.628;2023-03-01T09:34:16;2.20;95.70
8537;DHT22;4306;50.210;10.628;2023-03-01T09:36:49;2.20;95.80
8537;DHT22;4306;50.210;10.628;2023-03-01T09:39:17;2.40;95.70
8537;DHT22;4306;50.210;10.628;2023-03-01T09:41:53;2.50;95.30
8537;DHT22;4306;50.210;10.628;2023-03-01T09:44:34;2.60;95.50
8537;DHT22;4306;50.210;10.628;2023-03-01T09:47:03;2.60;95.80
8537;DHT22;4306;50.210;10.628;2023-03-01T09:49:33;2.70;94.60
8537;DHT22;4306;50.210;10.628;2023-03-01T09:52:04;2.80;94.50
8537;DHT22;4306;50.210;10.628;2023-03-01T09:54:34;2.90;94.00
8537;DHT22;4306;50.210;10.628;2023-03-01T09:57:11;3.00;93.40
8537;DHT22;4306;50.210;10.628;2023-03-01T09:59:51;3.00;93.50
8537;DHT22;4306;50.210;10.628;2023-03-01T10:02:27;3.00;92.90
8537;DHT22;4306;50.210;10.628;2023-03-01T10:05:05;3.10;94.00
8537;DHT22;4306;50.210;10.628;2023-03-01T10:07:43;3.20;93.90
8537;DHT22;4306;50.210;10.628;2023-03-01T10:10:27;3.20;93.40
8537;DHT22;4306;50.210;10.628;2023-03-01T10:12:55;3.30;94.00
8537;DHT22;4306;50.210;10.628;2023-03-01T10:15:36;3.40;92.50
8537;DHT22;4306;50.210;10.628;2023-03-01T10:18:10;3.50;92.90
8537;DHT22;4306;50.210;10.628;2023-03-01T10:20:45;3.50;93.20
8537;DHT22;4306;50.210;10.628;2023-03-01T10:23:14;3.60;92.40
8537;DHT22;4306;50.210;10.628;2023-03-01T10:25:52;3.60;92.50
8537;DHT22;4306;50.210;10.628;2023-03-01T10:28:26;3.70;92.20
8537;DHT22;4306;50.210;10.628;2023-03-01T10:30:57;4.00;91.30
8537;DHT22;4306;50.210;10.628;2023-03-01T10:33:26;3.90;90.80
8537;DHT22;4306;50.210;10.628;2023-03-01T10:35:55;3.80;90.10
8537;DHT22;4306;50.210;10.628;2023-03-01T10:38:22;3.80;90.90
8537;DHT22;4306;50.210;10.628;2023-03-01T10:40:54;3.90;90.30
8537;DHT22;4306;50.210;10.628;2023-03-01T10:43:23;4.00;91.00
8537;DHT22;4306;50.210;10.628;2023-03-01T10:45:50;4.00;90.60
8537;DHT22;4306;50.210;10.628;2023-03-01T10:48:18;4.00;89.10
8537;DHT22;4306;50.210;10.628;2023-03-01T10:50:50;4.00;88.90
8537;DHT22;4306;50.210;10.628;2023-03-01T10:53:25;4.10;88.40
8537;DHT22;4306;50.210;10.628;2023-03-01T10:55:59;4.20;90.20
8537;DHT22;4306;50.210;10.628;2023-03-01T10:58:28;4.30;90.70
8537;DHT22;4306;50.210;10.628;2023-03-01T11:00:56;4.30;89.20
8537;DHT22;4306;50.210;10.628;2023-03-01T11:03:25;4.40;88.00
8537;DHT22;4306;50.210;10.628;2023-03-01T11:05:58;4.50;88.10
8537;DHT22;4306;50.210;10.628;2023-03-01T11:08:39;4.50;87.00
8537;DHT22;4306;50.210;10.628;2023-03-01T11:11:22;4.60;88.70
8537;DHT22;4306;50.210;10.628;2023-03-01T11:13:55;4.60;86.10
8537;DHT22;4306;50.210;10.628;2023-03-01T11:16:28;4.70;87.40
8537;DHT22;4306;50.210;10.628;2023-03-01T11:18:57;4.80;87.60
8537;DHT22;4306;50.210;10.628;2023-03-01T11:21:25;4.90;88.10
8537;DHT22;4306;50.210;10.628;2023-03-01T11:23:54;4.90;86.90
8537;DHT22;4306;50.210;10.628;2023-03-01T11:26:21;4.90;87.60
8537;DHT22;4306;50.210;10.628;2023-03-01T11:28:51;5.00;86.30
8537;DHT22;4306;50.210;10.628;2023-03-01T11:31:21;4.90;84.90
8537;DHT22;4306;50.210;10.628;2023-03-01T11:33:57;5.00;85.00
8537;DHT22;4306;50.210;10.628;2023-03-01T11:36:30;5.00;84.80
8537;DHT22;4306;50.210;10.628;2023-03-01T11:39:03;5.10;86.20
8537;DHT22;4306;50.210;10.628;2023-03-01T11:41:34;5.10;85.00
8537;DHT22;4306;50.210;10.628;2023-03-01T11:44:05;5.10;85.00
8537;DHT22;4306;50.210;10.628;2023-03-01T11:46:49;5.10;83.40
8537;DHT22;4306;50.210;10.628;2023-03-01T11:52:25;5.30;83.80
8537;DHT22;4306;50.210;10.628;2023-03-01T11:55:13;5.30;81.70
8537;DHT22;4306;50.210;10.628;2023-03-01T11:57:56;5.30;81.40
8537;DHT22;4306;50.210;10.628;2023-03-01T12:00:50;5.30;82.00
8537;DHT22;4306;50.210;10.628;2023-03-01T12:03:29;5.50;84.20
8537;DHT22;4306;50.210;10.628;2023-03-01T12:06:26;5.60;85.00
8537;DHT22;4306;50.210;10.628;2023-03-01T12:09:14;5.70;83.70
8537;DHT22;4306;50.210;10.628;2023-03-01T12:11:55;5.80;82.00
8537;DHT22;4306;50.210;10.628;2023-03-01T12:14:44;5.80;81.40
8537;DHT22;4306;50.210;10.628;2023-03-01T12:17:36;5.90;82.80
8537;DHT22;4306;50.210;10.628;2023-03-01T12:20:17;5.80;79.40
8537;DHT22;4306;50.210;10.628;2023-03-01T12:22:54;5.90;81.00
8537;DHT22;4306;50.210;10.628;2023-03-01T12:25:29;5.90;79.40
8537;DHT22;4306;50.210;10.628;2023-03-01T12:28:29;5.90;80.50
8537;DHT22;4306;50.210;10.628;2023-03-01T12:31:29;6.00;79.80
8537;DHT22;4306;50.210;10.628;2023-03-01T12:34:05;6.10;80.80
8537;DHT22;4306;50.210;10.628;2023-03-01T12:36:54;6.10;80.80
8537;DHT22;4306;50.210;10.628;2023-03-01T12:39:40;6.30;81.20
8537;DHT22;4306;50.210;10.628;2023-03-01T12:42:16;6.40;82.30
8537;DHT22;4306;50.210;10.628;2023-03-01T12:45:14;6.50;79.20
8537;DHT22;4306;50.210;10.628;2023-03-01T12:47:57;6.50;80.80
8537;DHT22;4306;50.210;10.628;2023-03-01T12:50:37;6.60;80.20
8537;DHT22;4306;50.210;10.628;2023-03-01T12:53:07;6.80;78.70
8537;DHT22;4306;50.210;10.628;2023-03-01T12:55:42;6.60;76.50
8537;DHT22;4306;50.210;10.628;2023-03-01T12:58:21;6.60;78.70
8537;DHT22;4306;50.210;10.628;2023-03-01T13:01:01;6.80;79.70
8537;DHT22;4306;50.210;10.628;2023-03-01T13:03:40;6.80;76.40
8537;DHT22;4306;50.210;10.628;2023-03-01T13:06:16;6.80;75.20
8537;DHT22;4306;50.210;10.628;2023-03-01T13:08:49;6.80;75.90
8537;DHT22;4306;50.210;10.628;2023-03-01T13:11:21;7.00;78.70
8537;DHT22;4306;50.210;10.628;2023-03-01T13:13:49;6.90;75.90
8537;DHT22;4306;50.210;10.628;2023-03-01T13:19:16;6.80;75.80
8537;DHT22;4306;50.210;10.628;2023-03-01T13:21:44;6.80;75.30
8537;DHT22;4306;50.210;10.628;2023-03-01T13:24:26;7.00;75.60
8537;DHT22;4306;50.210;10.628;2023-03-01T13:27:22;7.10;76.60
8537;DHT22;4306;50.210;10.628;2023-03-01T13:29:55;7.10;77.00
8537;DHT22;4306;50.210;10.628;2023-03-01T13:32:27;7.20;76.30
8537;DHT22;4306;50.210;10.628;2023-03-01T13:34:56;7.30;76.40
8537;DHT22;4306;50.210;10.628;2023-03-01T13:37:31;7.30;76.90
8537;DHT22;4306;50.210;10.628;2023-03-01T13:40:01;7.30;76.90
8537;DHT22;4306;50.210;10.628;2023-03-01T13:45:32;7.40;77.00
8537;DHT22;4306;50.210;10.628;2023-03-01T13:48:03;7.20;76.40
8537;DHT22;4306;50.210;10.628;2023-03-01T13:50:42;7.20;77.10
8537;DHT22;4306;50.210;10.628;2023-03-01T13:53:14;7.20;76.30
8537;DHT22;4306;50.210;10.628;2023-03-01T13:55:44;7.60;77.50
8537;DHT22;4306;50.210;10.628;2023-03-01T13:58:19;7.40;76.20
8537;DHT22;4306;50.210;10.628;2023-03-01T14:00:55;7.30;77.80
8537;DHT22;4306;50.210;10.628;2023-03-01T14:03:24;7.20;76.80
8537;DHT22;4306;50.210;10.628;2023-03-01T14:06:01;7.10;77.00
8537;DHT22;4306;50.210;10.628;2023-03-01T14:08:29;7.20;79.50
8537;DHT22;4306;50.210;10.628;2023-03-01T14:14:16;7.00;78.00
8537;DHT22;4306;50.210;10.628;2023-03-01T14:16:52;7.10;79.50
8537;DHT22;4306;50.210;10.628;2023-03-01T14:19:24;7.20;79.80
8537;DHT22;4306;50.210;10.628;2023-03-01T14:21:59;7.10;77.00
8537;DHT22;4306;50.210;10.628;2023-03-01T14:24:31;7.10;78.40
8537;DHT22;4306;50.210;10.628;2023-03-01T14:27:00;7.10;77.00
8537;DHT22;4306;50.210;10.628;2023-03-01T14:29:32;7.00;78.50
8537;DHT22;4306;50.210;10.628;2023-03-01T14:32:09;6.90;76.80
8537;DHT22;4306;50.210;10.628;2023-03-01T14:34:43;6.90;79.00
8537;DHT22;4306;50.210;10.628;2023-03-01T14:37:11;7.00;78.90
8537;DHT22;4306;50.210;10.628;2023-03-01T14:39:44;7.00;78.10
8537;DHT22;4306;50.210;10.628;2023-03-01T14:42:12;7.10;77.00
8537;DHT22;4306;50.210;10.628;2023-03-01T14:44:41;7.10;78.40
8537;DHT22;4306;50.210;10.628;2023-03-01T14:47:12;7.10;79.00
8537;DHT22;4306;50.210;10.628;2023-03-01T14:49:43;7.10;78.60
8537;DHT22;4306;50.210;10.628;2023-03-01T14:52:20;7.00;77.30
8537;DHT22;4306;50.210;10.628;2023-03-01T14:54:48;6.90;78.90
8537;DHT22;4306;50.210;10.628;2023-03-01T14:57:20;7.00;78.90
8537;DHT22;4306;50.210;10.628;2023-03-01T14:59:49;7.10;78.70
8537;DHT22;4306;50.210;10.628;2023-03-01T15:02:21;7.00;77.80
8537;DHT22;4306;50.210;10.628;2023-03-01T15:04:52;7.00;78.60
8537;DHT22;4306;50.210;10.628;2023-03-01T15:07:19;6.90;78.00
8537;DHT22;4306;50.210;10.628;2023-03-01T15:09:46;6.70;77.80
8537;DHT22;4306;50.210;10.628;2023-03-01T15:12:35;6.60;78.00
8537;DHT22;4306;50.210;10.628;2023-03-01T15:18:05;6.80;80.20
8537;DHT22;4306;50.210;10.628;2023-03-01T15:20:35;6.60;79.10
8537;DHT22;4306;50.210;10.628;2023-03-01T15:23:02;6.70;80.50
8537;DHT22;4306;50.210;10.628;2023-03-01T15:25:31;6.60;80.30
8537;DHT22;4306;50.210;10.628;2023-03-01T15:28:00;6.40;79.50
8537;DHT22;4306;50.210;10.628;2023-03-01T15:30:29;6.40;81.30
8537;DHT22;4306;50.210;10.628;2023-03-01T15:33:20;6.30;80.60
8537;DHT22;4306;50.210;10.628;2023-03-01T15:35:56;6.30;81.50
8537;DHT22;4306;50.210;10.628;2023-03-01T15:38:32;6.40;81.30
8537;DHT22;4306;50.210;10.628;2023-03-01T15:41:01;6.00;81.50
8537;DHT22;4306;50.210;10.628;2023-03-01T15:43:40;5.90;81.20
8537;DHT22;4306;50.210;10.628;2023-03-01T15:46:17;5.80;81.90
8537;DHT22;4306;50.210;10.628;2023-03-01T15:48:45;5.90;82.80
8537;DHT22;4306;50.210;10.628;2023-03-01T15:51:16;5.70;81.70
8537;DHT22;4306;50.210;10.628;2023-03-01T15:53:47;5.80;83.20
8537;DHT22;4306;50.210;10.628;2023-03-01T15:56:16;5.80;83.10
8537;DHT22;4306;50.210;10.628;2023-03-01T15:58:43;5.70;82.60
8537;DHT22;4306;50.210;10.628;2023-03-01T16:01:12;5.60;83.10
8537;DHT22;4306;50.210;10.628;2023-03-01T16:03:39;5.40;83.20
8537;DHT22;4306;50.210;10.628;2023-03-01T16:06:08;5.40;84.10
8537;DHT22;4306;50.210;10.628;2023-03-01T16:08:36;5.40;84.20
8537;DHT22;4306;50.210;10.628;2023-03-01T16:11:04;5.30;83.40
8537;DHT22;4306;50.210;10.628;2023-03-01T16:13:31;5.30;83.90
8537;DHT22;4306;50.210;10.628;2023-03-01T16:16:38;5.20;83.80
8537;DHT22;4306;50.210;10.628;2023-03-01T16:19:04;5.20;84.50
8537;DHT22;4306;50.210;10.628;2023-03-01T16:21:31;5.10;84.10
8537;DHT22;4306;50.210;10.628;2023-03-01T16:24:00;5.00;84.80
8537;DHT22;4306;50.210;10.628;2023-03-01T16:26:27;4.80;84.80
8537;DHT22;4306;50.210;10.628;2023-03-01T16:28:55;4.80;85.10